Time;durP1;ratioP1;P1;durP2;ratioP2;P2;SDS_P1;SDS_P2;PMS_P1;PMS_P2;Temp;Humidity;BMP_temperature;BMP_pressure;BME280_temperature;BME280_humidity;BME280_pressure;Samples;Min_cycle;Max_cycle;Signal;HPM_P1;HPM_P2
2022/05/05 00:00:09;;;;;;;0.40;0.40;;;;;;;10.45;38.59;100873.76;104102;1279;100016;-77
2022/05/05 00:02:57;;;;;;;0.40;0.40;;;;;;;10.47;38.61;100874.60;103954;1279;140694;-78
2022/05/05 00:05:25;;;;;;;0.40;0.40;;;;;;;10.44;38.75;100873.77;104086;1281;95948;-79
2022/05/05 00:07:53;;;;;;;0.50;0.40;;;;;;;10.41;38.92;100869.39;104083;1279;95164;-80
2022/05/05 00:15:54;;;;;;;0.50;0.40;;;;;;;10.37;39.08;100870.15;104133;1279;139899;-78
2022/05/05 00:18:22;;;;;;;0.40;0.40;;;;;;;10.35;39.31;100867.17;104341;1280;95852;-76
2022/05/05 00:20:49;;;;;;;0.40;0.40;;;;;;;10.33;39.19;100865.05;103962;1278;140468;-76
2022/05/05 00:23:17;;;;;;;0.50;0.40;;;;;;;10.33;39.58;100864.88;104069;1279;110120;-80
2022/05/05 00:25:45;;;;;;;0.40;0.40;;;;;;;10.37;39.53;100866.95;104041;1279;99959;-77
2022/05/05 00:28:13;;;;;;;0.40;0.40;;;;;;;10.41;39.43;100866.72;103949;1279;141598;-77
2022/05/05 00:30:41;;;;;;;0.50;0.40;;;;;;;10.40;39.30;100867.98;104056;1279;95866;-77
2022/05/05 00:33:08;;;;;;;0.40;0.40;;;;;;;10.37;39.25;100868.73;103977;1279;140100;-77
2022/05/05 00:35:36;;;;;;;0.50;0.40;;;;;;;10.33;39.41;100873.04;104063;1279;108721;-78
2022/05/05 00:38:04;;;;;;;0.40;0.40;;;;;;;10.29;39.52;100868.67;104056;1279;100149;-77
2022/05/05 00:40:32;;;;;;;0.50;0.40;;;;;;;10.26;39.79;100866.05;103968;1279;140152;-76
2022/05/05 00:43:02;;;;;;;0.40;0.40;;;;;;;10.26;39.84;100868.55;104135;1281;95550;-76
2022/05/05 00:45:30;;;;;;;0.40;0.40;;;;;;;10.24;39.65;100866.47;103974;1279;140343;-78
2022/05/05 00:48:08;;;;;;;0.40;0.40;;;;;;;10.24;39.67;100869.29;104084;1279;110404;-80
2022/05/05 00:50:36;;;;;;;0.40;0.40;;;;;;;10.29;39.73;100865.30;104028;1279;140071;-77
2022/05/05 00:53:04;;;;;;;0.50;0.40;;;;;;;10.26;39.74;100869.61;104057;1279;108733;-75
2022/05/05 00:55:35;;;;;;;0.50;0.40;;;;;;;10.24;39.63;100866.98;104126;1280;95207;-80
2022/05/05 00:58:04;;;;;;;0.50;0.40;;;;;;;10.20;39.89;100866.16;104009;1279;140517;-80
2022/05/05 01:00:32;;;;;;;0.50;0.40;;;;;;;10.18;39.74;100865.66;104133;1279;109597;-82
2022/05/05 01:03:01;;;;;;;0.50;0.40;;;;;;;10.16;39.87;100867.45;104346;1279;139174;-78
2022/05/05 01:05:30;;;;;;;0.40;0.40;;;;;;;10.16;39.76;100868.71;104260;1279;108241;-78
2022/05/05 01:08:02;;;;;;;0.40;0.40;;;;;;;10.17;39.89;100864.62;105604;1279;95133;-82
2022/05/05 01:10:29;;;;;;;0.40;0.40;;;;;;;10.20;39.66;100863.85;104111;1280;139704;-76
2022/05/05 01:13:01;;;;;;;0.50;0.40;;;;;;;10.20;39.79;100860.30;104197;1279;110153;-82
2022/05/05 01:15:30;;;;;;;0.40;0.40;;;;;;;10.21;39.61;100862.94;104489;1279;139124;-77
2022/05/05 01:17:58;;;;;;;0.40;0.40;;;;;;;10.23;39.64;100863.82;104085;1279;107848;-80
2022/05/05 01:20:26;;;;;;;0.50;0.40;;;;;;;10.24;39.75;100864.34;104047;1279;95794;-79
2022/05/05 01:22:54;;;;;;;0.50;0.50;;;;;;;10.24;39.78;100866.27;104024;1279;139122;-76
2022/05/05 01:28:11;;;;;;;0.50;0.40;;;;;;;10.25;39.54;100860.56;104012;1279;139092;-78
2022/05/05 01:30:41;;;;;;;0.40;0.40;;;;;;;10.25;39.57;100860.05;104089;1279;109359;-77
2022/05/05 01:33:12;;;;;;;0.40;0.40;;;;;;;10.25;39.66;100862.88;104062;1279;138837;-77
2022/05/05 01:35:41;;;;;;;0.40;0.40;;;;;;;10.27;39.63;100860.02;104195;1279;95144;-79
2022/05/05 01:38:14;;;;;;;0.50;0.40;;;;;;;10.23;39.54;100863.09;104127;1279;110149;-76
2022/05/05 01:40:46;;;;;;;0.40;0.40;;;;;;;10.22;39.65;100862.95;103999;1279;140287;-76
2022/05/05 01:43:18;;;;;;;0.50;0.40;;;;;;;10.23;39.48;100862.58;104098;1279;107771;-76
2022/05/05 01:45:47;;;;;;;0.50;0.40;;;;;;;10.18;39.69;100870.63;103945;1279;139582;-77
2022/05/05 01:48:15;;;;;;;0.50;0.50;;;;;;;10.16;39.77;100868.73;104106;1279;95249;-78
2022/05/05 01:50:44;;;;;;;0.40;0.40;;;;;;;10.17;40.04;100869.22;104014;1279;139564;-77
2022/05/05 01:53:12;;;;;;;0.50;0.50;;;;;;;10.18;40.03;100868.32;104075;1279;98151;-76
2022/05/05 01:55:40;;;;;;;0.50;0.40;;;;;;;10.17;39.94;100869.76;104100;1279;108675;-77
2022/05/05 01:58:08;;;;;;;0.50;0.50;;;;;;;10.13;39.90;100866.45;104022;1278;140326;-79
2022/05/05 02:00:36;;;;;;;0.50;0.50;;;;;;;10.13;40.00;100863.08;104151;1280;95873;-78
2022/05/05 02:03:12;;;;;;;0.50;0.50;;;;;;;10.18;39.85;100865.48;104151;1279;140436;-78
2022/05/05 02:05:41;;;;;;;0.50;0.40;;;;;;;10.17;39.73;100865.51;104071;1281;97183;-80
2022/05/05 02:08:10;;;;;;;0.40;0.40;;;;;;;10.16;39.69;100870.83;103989;1281;109319;-79
2022/05/05 02:10:39;;;;;;;0.50;0.40;;;;;;;10.15;39.60;100868.73;103934;1281;140736;-77
2022/05/05 02:13:07;;;;;;;0.50;0.50;;;;;;;10.12;39.76;100867.02;104098;1281;95256;-77
2022/05/05 02:15:35;;;;;;;0.50;0.50;;;;;;;10.13;39.90;100864.16;103871;1281;141077;-81
2022/05/05 02:18:10;;;;;;;0.50;0.40;;;;;;;10.14;39.77;100865.56;104036;1279;99274;-77
2022/05/05 02:20:39;;;;;;;0.50;0.40;;;;;;;10.12;39.76;100862.75;103939;1279;140837;-78
2022/05/05 02:23:08;;;;;;;0.40;0.40;;;;;;;10.08;39.78;100856.95;104075;1279;96599;-78
2022/05/05 02:25:36;;;;;;;0.50;0.50;;;;;;;10.11;39.80;100854.09;104073;1279;95656;-76
2022/05/05 02:28:05;;;;;;;0.50;0.50;;;;;;;10.13;39.66;100855.30;103982;1279;140886;-78
2022/05/05 02:30:33;;;;;;;0.50;0.40;;;;;;;10.14;39.57;100854.75;104404;1279;98288;-77
2022/05/05 02:33:01;;;;;;;0.50;0.50;;;;;;;10.16;39.57;100852.93;103947;1279;139604;-78
2022/05/05 02:35:28;;;;;;;0.50;0.40;;;;;;;10.13;39.55;100852.80;104060;1279;95246;-79
2022/05/05 02:40:43;;;;;;;0.50;0.40;;;;;;;10.18;39.67;100846.86;104086;1279;141023;-78
2022/05/05 02:43:11;;;;;;;0.50;0.40;;;;;;;10.21;39.56;100846.98;104106;1281;99920;-76
2022/05/05 02:45:39;;;;;;;0.50;0.40;;;;;;;10.28;39.59;100847.20;103940;1279;138555;-79
2022/05/05 02:48:08;;;;;;;0.50;0.40;;;;;;;10.30;39.21;100850.38;104082;1279;95240;-80
2022/05/05 02:50:36;;;;;;;0.50;0.50;;;;;;;10.36;39.41;100852.77;103972;1279;138085;-77
2022/05/05 02:55:54;;;;;;;0.50;0.50;;;;;;;10.28;39.12;100858.40;104101;1279;99404;-77
2022/05/05 02:58:22;;;;;;;0.50;0.50;;;;;;;10.24;39.21;100861.84;103958;1279;139144;-78
2022/05/05 03:00:50;;;;;;;0.50;0.40;;;;;;;10.21;39.36;100860.65;104131;1279;95233;-79
2022/05/05 03:03:18;;;;;;;0.60;0.60;;;;;;;10.23;39.33;100861.68;104014;1279;137942;-76
2022/05/05 03:05:46;;;;;;;0.40;0.40;;;;;;;10.17;38.96;100860.88;104118;1279;110175;-76
2022/05/05 03:08:14;;;;;;;0.50;0.50;;;;;;;10.14;39.01;100859.70;104145;1279;99854;-78
2022/05/05 03:10:42;;;;;;;0.50;0.40;;;;;;;10.10;39.22;100860.29;104036;1279;138871;-76
2022/05/05 03:13:10;;;;;;;0.50;0.50;;;;;;;10.12;39.24;100860.27;104184;1279;95214;-76
2022/05/05 03:15:37;;;;;;;0.60;0.60;;;;;;;10.14;39.34;100858.46;104083;1279;140048;-77
2022/05/05 03:18:05;;;;;;;0.50;0.40;;;;;;;10.16;39.06;100860.20;104183;1279;110059;-77
2022/05/05 03:20:33;;;;;;;0.50;0.50;;;;;;;10.20;39.39;100860.13;104185;1279;138541;-79
2022/05/05 03:23:01;;;;;;;0.50;0.40;;;;;;;10.22;39.27;100860.45;104205;1279;109461;-78
2022/05/05 03:25:28;;;;;;;0.50;0.50;;;;;;;10.26;39.43;100859.85;104203;1279;95158;-82
2022/05/05 03:27:56;;;;;;;0.50;0.40;;;;;;;10.27;39.43;100858.25;104069;1279;140992;-76
2022/05/05 03:30:24;;;;;;;0.40;0.40;;;;;;;10.23;39.15;100854.59;104050;1281;109417;-76
2022/05/05 03:32:52;;;;;;;0.50;0.40;;;;;;;10.21;39.11;100856.57;103998;1281;138577;-78
2022/05/05 03:35:20;;;;;;;0.40;0.40;;;;;;;10.18;39.22;100856.98;104310;1279;109790;-77
2022/05/05 03:37:48;;;;;;;0.50;0.50;;;;;;;10.16;39.21;100859.84;104171;1279;95230;-79
2022/05/05 03:40:17;;;;;;;0.50;0.40;;;;;;;10.18;39.39;100866.91;104013;1279;137965;-78
2022/05/05 03:42:45;;;;;;;0.40;0.40;;;;;;;10.17;39.18;100870.11;104297;1279;108333;-76
2022/05/05 03:45:13;;;;;;;0.50;0.50;;;;;;;10.12;39.24;100869.33;104045;1279;140233;-77
2022/05/05 03:47:41;;;;;;;0.50;0.40;;;;;;;10.09;39.36;100867.42;104247;1279;109424;-78
2022/05/05 03:50:09;;;;;;;0.50;0.40;;;;;;;10.12;39.53;100866.65;104383;1279;95216;-80
2022/05/05 03:52:37;;;;;;;0.40;0.40;;;;;;;10.18;39.51;100864.06;104137;1279;140397;-76
2022/05/05 03:55:05;;;;;;;0.40;0.40;;;;;;;10.24;39.36;100867.52;104156;1279;110272;-79
2022/05/05 03:57:36;;;;;;;0.40;0.40;;;;;;;10.28;39.25;100870.48;104068;1279;139854;-78
2022/05/05 04:00:05;;;;;;;0.50;0.50;;;;;;;10.29;39.14;100871.52;104128;1279;109138;-77
2022/05/05 04:02:38;;;;;;;0.50;0.40;;;;;;;10.29;39.09;100874.88;104003;1279;138606;-79
2022/05/05 04:05:07;;;;;;;0.40;0.40;;;;;;;10.22;39.20;100874.64;104210;1279;95149;-77
2022/05/05 04:07:35;;;;;;;0.50;0.40;;;;;;;10.24;39.41;100875.33;104240;1279;110697;-78
2022/05/05 04:10:03;;;;;;;0.50;0.40;;;;;;;10.29;39.49;100874.35;104181;1279;139524;-79
2022/05/05 04:12:31;;;;;;;0.50;0.40;;;;;;;10.31;39.35;100869.71;104087;1279;200014;-77
2022/05/05 04:14:58;;;;;;;0.50;0.40;;;;;;;10.32;39.12;100870.38;104056;1279;140179;-78
2022/05/05 04:17:26;;;;;;;0.40;0.40;;;;;;;10.31;38.93;100875.56;104132;1279;95838;-82
2022/05/05 04:19:54;;;;;;;0.50;0.40;;;;;;;10.28;39.20;100875.77;104103;1279;110161;-80
2022/05/05 04:22:23;;;;;;;0.40;0.40;;;;;;;10.30;39.49;100877.70;103998;1279;139028;-78
2022/05/05 04:24:51;;;;;;;0.50;0.40;;;;;;;10.32;39.50;100879.80;104121;1279;109723;-79
2022/05/05 04:27:19;;;;;;;0.40;0.40;;;;;;;10.31;39.40;100876.80;104023;1279;138800;-78
2022/05/05 04:29:47;;;;;;;0.50;0.40;;;;;;;10.28;39.30;100878.80;104115;1279;95382;-76
2022/05/05 04:32:15;;;;;;;0.50;0.40;;;;;;;10.26;39.23;100874.57;104237;1279;108817;-82
2022/05/05 04:34:43;;;;;;;0.50;0.40;;;;;;;10.30;39.34;100879.85;104109;1279;138459;-79
2022/05/05 04:37:10;;;;;;;0.50;0.40;;;;;;;10.35;39.33;100879.59;104203;1279;108965;-78
2022/05/05 04:39:39;;;;;;;0.50;0.50;;;;;;;10.42;39.44;100878.95;104033;1279;140232;-80
2022/05/05 04:42:08;;;;;;;0.50;0.40;;;;;;;10.47;39.30;100882.94;104140;1279;95130;-78
2022/05/05 04:44:36;;;;;;;0.50;0.40;;;;;;;10.46;39.23;100879.76;104008;1279;138650;-78
2022/05/05 04:47:04;;;;;;;0.50;0.40;;;;;;;10.48;39.54;100880.79;104268;1279;99545;-77
2022/05/05 04:49:32;;;;;;;0.50;0.40;;;;;;;10.51;39.25;100878.95;104142;1279;107154;-75
2022/05/05 04:52:00;;;;;;;0.50;0.40;;;;;;;10.54;39.49;100874.45;104068;1279;138354;-83
2022/05/05 04:54:27;;;;;;;0.50;0.50;;;;;;;10.63;39.35;100872.88;104289;1279;95180;-83
2022/05/05 04:56:55;;;;;;;0.40;0.40;;;;;;;10.70;39.20;100878.62;103974;1279;140330;-78
2022/05/05 04:59:23;;;;;;;0.40;0.40;;;;;;;10.70;39.00;100879.66;104130;1279;100192;-75
2022/05/05 05:01:51;;;;;;;0.40;0.40;;;;;;;10.74;39.13;100880.66;104122;1279;109351;-77
2022/05/05 05:04:21;;;;;;;0.50;0.40;;;;;;;10.75;39.05;100882.95;103984;1279;140510;-76
2022/05/05 05:06:49;;;;;;;0.40;0.40;;;;;;;10.80;39.18;100880.73;104106;1279;95679;-79
2022/05/05 05:09:16;;;;;;;0.40;0.40;;;;;;;10.89;39.11;100883.58;104002;1279;138273;-76
2022/05/05 05:11:44;;;;;;;0.50;0.40;;;;;;;10.96;39.13;100891.42;104104;1279;98178;-78
2022/05/05 05:14:12;;;;;;;0.40;0.40;;;;;;;10.97;38.96;100887.66;104054;1279;109332;-78
2022/05/05 05:16:40;;;;;;;0.40;0.40;;;;;;;11.03;38.99;100883.99;104088;1279;138502;-78
2022/05/05 05:19:09;;;;;;;0.40;0.40;;;;;;;11.06;38.63;100883.75;104349;1279;95735;-76
2022/05/05 05:21:43;;;;;;;0.40;0.40;;;;;;;11.09;38.74;100887.26;103995;1279;138470;-77
2022/05/05 05:24:11;;;;;;;0.40;0.30;;;;;;;11.12;38.52;100887.90;104182;1279;97040;-79
2022/05/05 05:26:40;;;;;;;0.40;0.40;;;;;;;11.13;38.69;100895.70;104047;1279;138518;-78
2022/05/05 05:29:07;;;;;;;0.40;0.40;;;;;;;11.18;38.90;100888.13;104202;1279;95249;-76
2022/05/05 05:31:35;;;;;;;0.40;0.40;;;;;;;11.32;38.96;100886.95;104153;1279;95362;-77
2022/05/05 05:34:03;;;;;;;0.40;0.30;;;;;;;11.39;38.52;100887.87;104030;1279;138388;-77
2022/05/05 05:36:31;;;;;;;0.40;0.30;;;;;;;11.46;38.65;100887.55;104341;1279;98659;-82
2022/05/05 05:38:58;;;;;;;0.40;0.30;;;;;;;11.50;38.54;100887.44;104266;1279;140651;-77
2022/05/05 05:41:27;;;;;;;0.40;0.30;;;;;;;11.49;38.30;100890.66;104439;1279;95135;-76
2022/05/05 05:43:55;;;;;;;0.40;0.30;;;;;;;11.51;38.44;100889.73;104302;1279;95115;-76
2022/05/05 05:46:23;;;;;;;0.40;0.30;;;;;;;11.56;38.67;100888.58;104057;1279;140201;-75
2022/05/05 05:48:52;;;;;;;0.40;0.30;;;;;;;11.56;38.45;100889.45;104136;1278;97715;-78
2022/05/05 05:51:20;;;;;;;0.40;0.30;;;;;;;11.54;38.47;100888.63;104166;1277;140556;-81
2022/05/05 05:53:48;;;;;;;0.40;0.30;;;;;;;11.56;38.45;100882.70;104201;1278;95325;-79
2022/05/05 05:56:16;;;;;;;0.40;0.30;;;;;;;11.61;38.35;100883.65;104128;1279;95322;-76
2022/05/05 05:58:44;;;;;;;0.40;0.30;;;;;;;11.64;38.21;100883.05;103970;1279;140627;-77
2022/05/05 06:01:12;;;;;;;0.40;0.30;;;;;;;11.72;38.27;100883.04;104101;1279;100574;-79
2022/05/05 06:03:56;;;;;;;0.40;0.30;;;;;;;11.79;38.31;100882.35;104010;1279;140183;-76
2022/05/05 06:06:24;;;;;;;0.40;0.30;;;;;;;11.84;38.18;100883.30;104132;1279;95746;-76
2022/05/05 06:08:52;;;;;;;0.40;0.30;;;;;;;11.90;38.14;100884.23;104097;1279;141132;-77
2022/05/05 06:11:21;;;;;;;0.40;0.30;;;;;;;12.08;38.19;100883.46;104298;1279;110465;-76
2022/05/05 06:13:49;;;;;;;0.40;0.30;;;;;;;12.26;37.86;100884.63;104133;1279;99400;-77
2022/05/05 06:16:17;;;;;;;0.40;0.30;;;;;;;12.43;37.64;100879.02;103995;1279;140458;-76
2022/05/05 06:18:44;;;;;;;0.40;0.30;;;;;;;12.61;37.73;100879.42;104154;1279;95627;-79
2022/05/05 06:21:12;;;;;;;0.40;0.30;;;;;;;12.83;37.39;100880.79;104070;1279;139866;-78
2022/05/05 06:23:41;;;;;;;0.40;0.30;;;;;;;12.86;36.86;100882.13;104174;1279;109456;-76
2022/05/05 06:26:09;;;;;;;0.40;0.30;;;;;;;12.90;36.95;100886.30;104076;1281;99996;-77
2022/05/05 06:28:36;;;;;;;0.40;0.20;;;;;;;12.96;37.38;100880.61;103983;1279;141470;-76
2022/05/05 06:31:05;;;;;;;0.40;0.30;;;;;;;13.10;37.38;100875.75;104109;1279;95496;-78
2022/05/05 06:33:33;;;;;;;0.40;0.30;;;;;;;13.14;36.99;100880.98;104006;1279;139389;-77
2022/05/05 06:36:01;;;;;;;0.40;0.30;;;;;;;13.13;36.81;100880.99;104104;1279;110273;-76
2022/05/05 06:38:29;;;;;;;0.40;0.20;;;;;;;13.14;37.10;100877.76;104117;1279;99930;-77
2022/05/05 06:40:56;;;;;;;0.40;0.20;;;;;;;13.19;37.33;100878.16;103976;1279;139785;-77
2022/05/05 06:43:24;;;;;;;0.40;0.30;;;;;;;13.22;37.17;100881.09;104071;1279;95545;-76
2022/05/05 06:45:52;;;;;;;0.40;0.20;;;;;;;13.18;37.13;100881.05;103985;1279;140455;-81
2022/05/05 06:48:20;;;;;;;0.40;0.30;;;;;;;13.18;37.57;100881.02;104115;1279;109246;-77
2022/05/05 06:50:48;;;;;;;0.40;0.20;;;;;;;13.31;37.63;100886.55;104011;1279;140886;-79
2022/05/05 06:53:16;;;;;;;0.40;0.30;;;;;;;13.48;37.42;100893.55;104148;1279;109737;-78
2022/05/05 06:55:44;;;;;;;0.40;0.20;;;;;;;13.61;37.24;100893.33;104136;1279;95234;-76
2022/05/05 06:58:11;;;;;;;0.40;0.20;;;;;;;13.63;36.97;100898.08;103997;1279;139840;-76
2022/05/05 07:03:26;;;;;;;0.40;0.30;;;;;;;13.84;37.19;100898.15;104041;1279;140579;-77
2022/05/05 07:05:53;;;;;;;0.40;0.20;;;;;;;13.86;36.94;100898.63;104118;1279;107872;-76
2022/05/05 07:08:21;;;;;;;0.40;0.30;;;;;;;14.00;37.22;100896.03;104044;1279;95199;-78
2022/05/05 07:10:52;;;;;;;0.40;0.20;;;;;;;14.16;36.98;100899.06;104029;1279;139087;-75
2022/05/05 07:13:24;;;;;;;0.40;0.20;;;;;;;14.28;36.54;100898.15;104149;1279;110178;-76
2022/05/05 07:15:52;;;;;;;0.40;0.20;;;;;;;14.47;36.72;100897.48;103983;1279;139493;-74
2022/05/05 07:18:20;;;;;;;0.40;0.20;;;;;;;14.56;36.00;100897.20;104105;1279;109749;-77
2022/05/05 07:20:47;;;;;;;0.50;0.20;;;;;;;14.62;36.23;100900.94;104016;1279;140634;-79
2022/05/05 07:23:15;;;;;;;0.40;0.20;;;;;;;14.63;36.07;100900.71;104147;1279;95215;-77
2022/05/05 07:25:43;;;;;;;0.40;0.20;;;;;;;14.68;36.29;100891.63;104341;1279;110416;-77
2022/05/05 07:28:13;;;;;;;0.40;0.20;;;;;;;14.70;35.97;100901.56;104113;1279;140687;-77
2022/05/05 07:30:41;;;;;;;0.40;0.20;;;;;;;14.59;36.16;100901.20;104229;1279;109634;-76
2022/05/05 07:33:09;;;;;;;0.40;0.20;;;;;;;14.61;36.51;100896.32;103983;1278;139017;-77
2022/05/05 07:35:38;;;;;;;0.40;0.20;;;;;;;14.71;36.68;100895.63;104043;1279;96586;-77
2022/05/05 07:38:06;;;;;;;0.40;0.20;;;;;;;14.76;36.51;100893.48;104061;1279;110120;-76
2022/05/05 07:40:34;;;;;;;0.40;0.20;;;;;;;14.69;36.24;100889.44;103976;1279;141373;-77
2022/05/05 07:43:02;;;;;;;0.40;0.20;;;;;;;14.74;36.71;100889.64;104062;1279;109348;-78
2022/05/05 07:45:30;;;;;;;0.40;0.20;;;;;;;14.91;36.68;100893.48;103978;1279;139906;-79
2022/05/05 07:48:00;;;;;;;0.40;0.20;;;;;;;15.07;36.29;100888.05;104249;1279;95691;-79
2022/05/05 07:50:29;;;;;;;0.40;0.20;;;;;;;15.22;36.44;100884.30;104075;1279;110663;-75
2022/05/05 07:52:56;;;;;;;0.40;0.20;;;;;;;15.31;35.87;100883.04;104008;1279;140016;-77
2022/05/05 07:55:24;;;;;;;0.40;0.20;;;;;;;15.38;36.19;100881.02;104064;1279;109426;-75
2022/05/05 07:57:52;;;;;;;0.40;0.20;;;;;;;15.52;36.24;100880.80;103956;1279;138932;-76
2022/05/05 08:00:21;;;;;;;0.40;0.20;;;;;;;15.58;35.74;100880.59;104094;1279;96779;-76
2022/05/05 08:02:49;;;;;;;0.40;0.20;;;;;;;15.62;35.86;100880.77;104024;1279;140357;-79
2022/05/05 08:05:17;;;;;;;0.40;0.20;;;;;;;15.65;35.80;100886.56;104096;1279;99770;-76
2022/05/05 08:07:48;;;;;;;0.40;0.20;;;;;;;15.74;36.21;100884.42;104020;1279;107837;-80
2022/05/05 08:10:22;;;;;;;0.40;0.20;;;;;;;15.90;36.19;100887.56;104027;1279;139950;-75
2022/05/05 08:12:50;;;;;;;0.40;0.20;;;;;;;16.06;36.28;100886.56;104060;1279;95260;-77
2022/05/05 08:15:18;;;;;;;0.40;0.10;;;;;;;16.11;35.57;100885.83;103987;1279;140895;-84
2022/05/05 08:17:47;;;;;;;0.40;0.20;;;;;;;16.14;35.75;100886.95;104116;1279;100201;-77
2022/05/05 08:20:16;;;;;;;0.40;0.20;;;;;;;16.23;35.66;100886.41;104118;1279;109309;-75
2022/05/05 08:22:44;;;;;;;0.40;0.20;;;;;;;16.51;36.08;100886.27;103926;1281;140732;-76
2022/05/05 08:30:46;;;;;;;0.40;0.10;;;;;;;17.01;34.66;100879.81;104069;1279;100332;-76
2022/05/05 08:33:14;;;;;;;0.40;0.10;;;;;;;17.17;34.03;100873.70;104103;1279;139996;-76
2022/05/05 08:35:42;;;;;;;0.40;0.10;;;;;;;17.19;34.21;100875.39;104011;1279;95535;-75
2022/05/05 08:38:10;;;;;;;0.40;0.20;;;;;;;17.32;34.38;100877.89;104219;1279;95654;-76
2022/05/05 08:40:41;;;;;;;0.40;0.10;;;;;;;17.46;34.41;100876.84;104010;1279;137644;-78
2022/05/05 08:43:10;;;;;;;0.40;0.10;;;;;;;17.62;33.77;100876.98;104191;1279;99861;-78
2022/05/05 08:45:38;;;;;;;0.40;0.10;;;;;;;17.76;33.58;100874.69;104029;1279;138809;-77
2022/05/05 08:48:08;;;;;;;0.40;0.10;;;;;;;17.93;33.60;100877.27;104110;1279;95757;-76
2022/05/05 08:50:41;;;;;;;0.40;0.10;;;;;;;18.03;32.96;100876.30;104005;1279;140629;-75
2022/05/05 08:53:12;;;;;;;0.40;0.10;;;;;;;18.16;32.98;100877.42;104135;1279;109815;-78
2022/05/05 08:55:42;;;;;;;0.40;0.10;;;;;;;18.36;33.12;100876.25;104097;1279;100298;-77
2022/05/05 08:58:10;;;;;;;0.40;0.10;;;;;;;18.77;34.02;100874.84;104005;1279;140564;-78
2022/05/05 09:00:38;;;;;;;0.40;0.10;;;;;;;19.24;32.65;100864.80;104253;1279;95908;-79
2022/05/05 09:03:09;;;;;;;0.40;0.10;;;;;;;19.68;31.77;100863.75;104174;1279;140758;-77
2022/05/05 09:05:43;;;;;;;0.40;0.10;;;;;;;19.88;31.21;100868.27;104288;1279;108704;-79
2022/05/05 09:08:23;;;;;;;0.40;0.10;;;;;;;20.00;31.46;100874.77;104156;1279;97499;-76
2022/05/05 09:10:52;;;;;;;0.40;0.10;;;;;;;20.46;30.17;100876.77;104020;1279;138606;-76
2022/05/05 09:13:28;;;;;;;0.40;0.10;;;;;;;20.59;29.27;100872.73;104269;1279;95695;-76
2022/05/05 09:15:57;;;;;;;0.40;0.10;;;;;;;20.72;29.28;100863.09;104021;1279;138439;-78
2022/05/05 09:18:28;;;;;;;0.40;0.10;;;;;;;21.51;28.79;100861.20;104136;1279;110435;-75
2022/05/05 09:20:59;;;;;;;0.40;0.10;;;;;;;22.75;27.48;100857.84;104118;1279;139693;-79
2022/05/05 09:23:34;;;;;;;0.40;0.10;;;;;;;23.87;25.98;100858.52;104118;1279;108734;-79
2022/05/05 09:26:08;;;;;;;0.40;0.10;;;;;;;24.59;24.56;100860.14;104095;1279;95237;-77
2022/05/05 09:28:36;;;;;;;0.40;0.10;;;;;;;25.03;24.04;100854.50;104063;1279;138987;-74
2022/05/05 09:31:09;;;;;;;0.40;0.10;;;;;;;25.87;23.83;100851.89;104361;1279;110167;-85
2022/05/05 09:33:39;;;;;;;0.40;0.00;;;;;;;26.51;22.50;100857.23;104020;1279;140639;-76
2022/05/05 09:36:15;;;;;;;0.40;0.00;;;;;;;26.95;21.82;100851.66;104172;1279;109356;-80
2022/05/05 09:39:12;;;;;;;0.40;0.00;;;;;;;27.68;21.35;100846.71;104139;1279;140262;-77
2022/05/05 09:41:44;;;;;;;0.40;0.00;;;;;;;27.92;20.44;100849.84;104240;1279;95136;-75
2022/05/05 09:44:15;;;;;;;0.40;0.00;;;;;;;28.23;20.53;100842.40;104148;1279;110405;-85
2022/05/05 09:46:45;;;;;;;0.40;0.00;;;;;;;28.90;20.18;100845.42;104207;1279;141099;-77
2022/05/05 09:49:19;;;;;;;0.40;0.00;;;;;;;29.25;19.20;100844.59;104193;1279;109473;-78
2022/05/05 09:57:49;;;;;;;0.40;0.00;;;;;;;30.28;18.09;100836.86;104237;1279;138529;-79
2022/05/05 10:05:53;;;;;;;0.40;0.00;;;;;;;29.73;17.67;100837.63;104160;1278;95768;-81
2022/05/05 10:08:26;;;;;;;0.40;0.00;;;;;;;30.05;17.64;100829.68;104219;1277;95502;-75
2022/05/05 10:10:54;;;;;;;0.40;0.00;;;;;;;30.13;17.21;100830.70;104741;1278;139945;-78
2022/05/05 10:13:24;;;;;;;0.40;0.00;;;;;;;30.34;17.17;100832.19;104205;1279;100562;-78
2022/05/05 10:15:52;;;;;;;0.40;0.00;;;;;;;30.61;17.01;100830.54;104018;1279;141085;-74
2022/05/05 10:18:30;;;;;;;0.40;0.00;;;;;;;30.38;17.01;100830.88;104038;1280;95311;-81
2022/05/05 10:20:58;;;;;;;0.40;0.00;;;;;;;30.50;16.97;100827.09;104068;1279;140790;-80
2022/05/05 10:23:44;;;;;;;0.40;0.00;;;;;;;30.70;17.01;100822.63;104208;1279;110707;-76
2022/05/05 10:26:13;;;;;;;0.40;0.00;;;;;;;30.85;16.58;100821.30;104162;1279;100607;-77
2022/05/05 10:28:42;;;;;;;0.40;0.00;;;;;;;31.14;16.99;100817.69;103888;1279;139709;-80
2022/05/05 10:31:11;;;;;;;0.40;0.00;;;;;;;31.17;16.74;100811.70;104162;1279;95291;-77
2022/05/05 10:34:08;;;;;;;0.40;0.00;;;;;;;31.22;16.45;100810.90;104125;1279;138659;-83
2022/05/05 10:36:36;;;;;;;0.40;0.00;;;;;;;30.69;16.46;100814.15;104436;1279;108742;-80
2022/05/05 10:39:18;;;;;;;0.40;0.00;;;;;;;30.67;16.93;100820.46;104304;1279;138974;-75
2022/05/05 10:41:47;;;;;;;0.40;0.00;;;;;;;30.65;16.54;100818.23;104306;1279;108189;-80
2022/05/05 10:44:16;;;;;;;0.40;0.00;;;;;;;30.26;16.63;100822.06;104406;1279;95250;-76
2022/05/05 10:47:03;;;;;;;0.40;0.00;;;;;;;30.55;17.56;100816.55;104355;1279;137572;-76
2022/05/05 10:49:37;;;;;;;0.40;0.00;;;;;;;30.84;16.45;100818.58;104339;1279;110043;-74
2022/05/05 10:52:08;;;;;;;0.40;0.00;;;;;;;29.46;17.44;100817.29;104162;1279;141402;-77
2022/05/05 10:54:43;;;;;;;0.40;0.00;;;;;;;28.40;18.86;100812.77;104147;1279;109364;-77
2022/05/05 10:57:26;;;;;;;0.40;0.00;;;;;;;27.47;20.00;100814.37;104066;1279;140634;-76
2022/05/05 11:00:08;;;;;;;0.40;0.00;;;;;;;26.47;21.05;100824.98;104117;1279;95257;-73
2022/05/05 11:02:37;;;;;;;0.40;0.00;;;;;;;25.44;22.51;100810.91;104183;1279;139869;-77
2022/05/05 11:05:27;;;;;;;0.40;0.00;;;;;;;25.10;23.42;100806.90;104132;1279;100002;-78
2022/05/05 11:08:08;;;;;;;0.40;0.00;;;;;;;24.98;23.98;100810.04;104123;1279;108579;-75
2022/05/05 11:10:38;;;;;;;0.40;0.00;;;;;;;25.15;24.06;100810.13;104037;1279;138899;-76
2022/05/05 11:13:06;;;;;;;0.40;0.00;;;;;;;25.12;24.23;100808.72;104200;1279;95145;-77
2022/05/05 11:21:35;;;;;;;0.40;0.00;;;;;;;24.43;25.17;100813.48;103763;1279;140349;-81
2022/05/05 11:24:04;;;;;;;0.40;0.10;;;;;;;24.44;25.20;100804.63;104147;1279;95413;-79
2022/05/05 11:26:33;;;;;;;0.40;0.00;;;;;;;24.15;25.34;100809.79;104180;1279;95119;-80
2022/05/05 11:29:01;;;;;;;0.40;0.00;;;;;;;23.81;26.11;100808.40;104321;1279;138223;-77
2022/05/05 11:31:30;;;;;;;0.40;0.00;;;;;;;23.49;26.23;100810.19;104171;1279;100039;-76
2022/05/05 11:34:03;;;;;;;0.40;0.00;;;;;;;23.27;26.61;100802.38;104987;1279;140386;-78
2022/05/05 11:36:34;;;;;;;0.40;0.00;;;;;;;23.29;26.91;100798.79;104316;1279;95333;-75
2022/05/05 11:39:07;;;;;;;0.40;0.00;;;;;;;23.24;27.14;100795.77;104214;1279;139320;-82
2022/05/05 11:41:35;;;;;;;0.40;0.00;;;;;;;23.18;26.82;100796.13;104212;1279;109258;-74
2022/05/05 11:44:17;;;;;;;0.40;0.00;;;;;;;22.91;27.33;100798.05;104097;1279;99356;-76
2022/05/05 11:46:46;;;;;;;0.40;0.10;;;;;;;22.88;27.78;100797.01;103981;1279;139271;-74
2022/05/05 11:49:15;;;;;;;0.40;0.00;;;;;;;22.88;27.58;100803.52;104013;1280;95328;-77
2022/05/05 11:51:43;;;;;;;0.40;0.00;;;;;;;22.97;27.19;100792.90;104085;1279;142650;-76
2022/05/05 11:54:16;;;;;;;0.40;0.10;;;;;;;23.12;27.48;100788.81;104147;1279;110358;-74
2022/05/05 11:56:46;;;;;;;0.40;0.10;;;;;;;23.20;27.55;100787.14;103881;1280;140665;-74
2022/05/05 12:02:17;;;;;;;0.40;0.10;;;;;;;23.04;26.93;100785.02;104052;1279;95498;-80
2022/05/05 12:04:49;;;;;;;0.40;0.00;;;;;;;22.84;27.66;100778.98;104037;1279;139975;-75